This is the latest recevied weather packets stored in our database for station/object HA9OZD-19. If no packets are shown the sender has not sent any weather packets the latest 10 day(s).
| Time | Temp. | Humidity | Pressure | Rain* | Wind** | Luminosity | Snow |
|---|---|---|---|---|---|---|---|
| 1787751354 | 25.56° C | 36% | 1036.7 hPa | - | - | - | - |
| 1787747813 | 26.67° C | 35% | 1036.6 hPa | - | - | - | - |
| 1787744273 | 26.67° C | 35% | 1036.5 hPa | - | - | - | - |
| 1787742836 | 25.56° C | 36% | 1036.6 hPa | - | - | - | - |
| 1787739296 | 25° C | 38% | 1036.5 hPa | - | - | - | - |
| 1787735756 | 22.78° C | 42% | 1036.7 hPa | - | - | - | - |
| 1787732216 | 23.89° C | 42% | 1036.3 hPa | - | - | - | - |
| 1787728676 | 21.67° C | 48% | 1035.7 hPa | - | - | - | - |
| 1787725135 | 19.44° C | 54% | 1035.3 hPa | - | - | - | - |
| 1787721595 | 18.33° C | 57% | 1035 hPa | - | - | - | - |
| 1787718055 | 17.78° C | 56% | 1034.4 hPa | - | - | - | - |
| 1787714515 | 17.78° C | 55% | 1034.3 hPa | - | - | - | - |
| 1787710975 | 18.33° C | 53% | 1034.3 hPa | - | - | - | - |
| 1787707435 | 18.33° C | 53% | 1033.9 hPa | - | - | - | - |
| 1787703895 | 18.89° C | 50% | 1033.8 hPa | - | - | - | - |
| 1787700355 | 19.44° C | 48% | 1033.8 hPa | - | - | - | - |
| 1787696815 | 20° C | 46% | 1034.1 hPa | - | - | - | - |
| 1787693274 | 20.56° C | 46% | 1034.1 hPa | - | - | - | - |
| 1787689734 | 21.67° C | 40% | 1034.1 hPa | - | - | - | - |
| 1787686194 | 22.22° C | 39% | 1033.5 hPa | - | - | - | - |
| 1787679114 | 24.44° C | 34% | 1032.9 hPa | - | - | - | - |
| 1787675573 | 26.67° C | 28% | 1032.5 hPa | - | - | - | - |
| 1787672033 | 28.33° C | 25% | 1032.8 hPa | - | - | - | - |
| 1787668493 | 30.56° C | 22% | 1032.6 hPa | - | - | - | - |
| 1787664953 | 31.11° C | 21% | 1032.7 hPa | - | - | - | - |
* Rain since midnight (hover to see other rain measurements)
** Current wind speed in m/s (hover to see current wind gust speed)